sensor_id;sensor_type;location;lat;lon;timestamp;pressure;altitude;pressure_sealevel;temperature;humidity
48041;BME280;33815;48.386;11.738;2023-01-25T00:00:36;98008.06;;;-0.18;100.00
48041;BME280;33815;48.386;11.738;2023-01-25T00:03:02;98016.94;;;-0.01;100.00
48041;BME280;33815;48.386;11.738;2023-01-25T00:05:27;98005.22;;;-0.08;100.00
48041;BME280;33815;48.386;11.738;2023-01-25T00:07:52;98019.69;;;-0.07;100.00
48041;BME280;33815;48.386;11.738;2023-01-25T00:10:18;97998.69;;;-0.19;100.00
48041;BME280;33815;48.386;11.738;2023-01-25T00:12:43;98008.22;;;-0.22;100.00
48041;BME280;33815;48.386;11.738;2023-01-25T00:15:09;98021.03;;;-0.22;100.00
48041;BME280;33815;48.386;11.738;2023-01-25T00:17:34;98023.34;;;-0.14;100.00
48041;BME280;33815;48.386;11.738;2023-01-25T00:19:59;98029.75;;;-0.28;100.00
48041;BME280;33815;48.386;11.738;2023-01-25T00:22:24;98002.94;;;-0.18;100.00
48041;BME280;33815;48.386;11.738;2023-01-25T00:24:50;98028.56;;;-0.18;100.00
48041;BME280;33815;48.386;11.738;2023-01-25T00:27:15;97998.06;;;-0.25;100.00
48041;BME280;33815;48.386;11.738;2023-01-25T00:29:40;98013.94;;;-0.14;100.00
48041;BME280;33815;48.386;11.738;2023-01-25T00:34:44;98006.41;;;-0.47;100.00
48041;BME280;33815;48.386;11.738;2023-01-25T00:37:27;98011.38;;;-0.42;100.00
48041;BME280;33815;48.386;11.738;2023-01-25T00:39:53;98028.31;;;-0.38;100.00
48041;BME280;33815;48.386;11.738;2023-01-25T00:42:18;98024.84;;;-0.36;100.00
48041;BME280;33815;48.386;11.738;2023-01-25T00:44:44;98023.75;;;-0.28;100.00
48041;BME280;33815;48.386;11.738;2023-01-25T00:47:10;98025.59;;;-0.32;100.00
48041;BME280;33815;48.386;11.738;2023-01-25T00:49:37;98022.59;;;-0.46;100.00
48041;BME280;33815;48.386;11.738;2023-01-25T00:52:05;98019.34;;;-0.52;100.00
48041;BME280;33815;48.386;11.738;2023-01-25T00:54:30;98020.56;;;-0.35;100.00
48041;BME280;33815;48.386;11.738;2023-01-25T00:56:55;98021.63;;;-0.42;100.00
48041;BME280;33815;48.386;11.738;2023-01-25T00:59:22;98020.63;;;-0.38;100.00
48041;BME280;33815;48.386;11.738;2023-01-25T01:01:47;98028.63;;;-0.47;100.00
48041;BME280;33815;48.386;11.738;2023-01-25T01:04:13;98021.50;;;-0.38;100.00
48041;BME280;33815;48.386;11.738;2023-01-25T01:06:39;98012.31;;;-0.45;100.00
48041;BME280;33815;48.386;11.738;2023-01-25T01:09:07;98020.28;;;-0.26;100.00
48041;BME280;33815;48.386;11.738;2023-01-25T01:11:33;98005.00;;;-0.57;100.00
48041;BME280;33815;48.386;11.738;2023-01-25T01:13:59;98008.44;;;-0.58;100.00
48041;BME280;33815;48.386;11.738;2023-01-25T01:16:25;98004.59;;;-0.43;100.00
48041;BME280;33815;48.386;11.738;2023-01-25T01:18:51;98009.97;;;-0.53;100.00
48041;BME280;33815;48.386;11.738;2023-01-25T01:21:16;97994.34;;;-0.43;100.00
48041;BME280;33815;48.386;11.738;2023-01-25T01:23:43;97988.28;;;-0.69;100.00
48041;BME280;33815;48.386;11.738;2023-01-25T01:26:11;98009.88;;;-0.49;100.00
48041;BME280;33815;48.386;11.738;2023-01-25T01:28:36;98013.63;;;-0.60;100.00
48041;BME280;33815;48.386;11.738;2023-01-25T01:31:23;97981.81;;;-0.81;100.00
48041;BME280;33815;48.386;11.738;2023-01-25T01:33:52;98005.31;;;-0.68;100.00
48041;BME280;33815;48.386;11.738;2023-01-25T01:36:21;98008.50;;;-0.60;100.00
48041;BME280;33815;48.386;11.738;2023-01-25T01:38:47;97991.63;;;-0.67;100.00
48041;BME280;33815;48.386;11.738;2023-01-25T01:41:13;98013.72;;;-0.63;100.00
48041;BME280;33815;48.386;11.738;2023-01-25T01:43:39;98004.84;;;-0.53;100.00
48041;BME280;33815;48.386;11.738;2023-01-25T01:46:09;97987.44;;;-0.70;100.00
48041;BME280;33815;48.386;11.738;2023-01-25T01:48:59;97989.44;;;-0.79;100.00
48041;BME280;33815;48.386;11.738;2023-01-25T01:51:35;98003.63;;;-0.69;100.00
48041;BME280;33815;48.386;11.738;2023-01-25T01:54:10;98006.19;;;-0.69;100.00
48041;BME280;33815;48.386;11.738;2023-01-25T01:56:40;98003.41;;;-0.61;100.00
48041;BME280;33815;48.386;11.738;2023-01-25T01:59:09;97973.50;;;-0.89;100.00
48041;BME280;33815;48.386;11.738;2023-01-25T02:01:35;98004.50;;;-0.68;100.00
48041;BME280;33815;48.386;11.738;2023-01-25T02:04:01;98006.66;;;-0.56;100.00
48041;BME280;33815;48.386;11.738;2023-01-25T02:06:50;98009.38;;;-0.61;100.00
48041;BME280;33815;48.386;11.738;2023-01-25T02:09:18;97995.69;;;-0.60;100.00
48041;BME280;33815;48.386;11.738;2023-01-25T02:11:45;98002.56;;;-0.62;100.00
48041;BME280;33815;48.386;11.738;2023-01-25T02:14:13;97994.66;;;-0.82;100.00
48041;BME280;33815;48.386;11.738;2023-01-25T02:16:40;98012.22;;;-0.70;100.00
48041;BME280;33815;48.386;11.738;2023-01-25T02:19:08;97997.88;;;-0.76;100.00
48041;BME280;33815;48.386;11.738;2023-01-25T02:21:40;98003.78;;;-0.74;100.00
48041;BME280;33815;48.386;11.738;2023-01-25T02:24:23;98007.00;;;-0.67;100.00
48041;BME280;33815;48.386;11.738;2023-01-25T02:26:51;98005.31;;;-0.68;100.00
48041;BME280;33815;48.386;11.738;2023-01-25T02:29:16;97991.28;;;-0.84;100.00
48041;BME280;33815;48.386;11.738;2023-01-25T02:31:44;98010.97;;;-0.87;100.00
48041;BME280;33815;48.386;11.738;2023-01-25T02:34:10;97992.19;;;-0.85;100.00
48041;BME280;33815;48.386;11.738;2023-01-25T02:36:35;97991.53;;;-0.92;100.00
48041;BME280;33815;48.386;11.738;2023-01-25T02:39:10;97990.66;;;-0.93;100.00
48041;BME280;33815;48.386;11.738;2023-01-25T02:41:41;98004.13;;;-0.86;100.00
48041;BME280;33815;48.386;11.738;2023-01-25T02:44:10;98000.16;;;-0.66;100.00
48041;BME280;33815;48.386;11.738;2023-01-25T02:46:37;97995.56;;;-0.85;100.00
48041;BME280;33815;48.386;11.738;2023-01-25T02:49:05;98006.84;;;-0.91;100.00
48041;BME280;33815;48.386;11.738;2023-01-25T02:51:33;98003.97;;;-0.80;100.00
48041;BME280;33815;48.386;11.738;2023-01-25T02:54:00;97996.25;;;-0.78;100.00
48041;BME280;33815;48.386;11.738;2023-01-25T02:56:26;98002.16;;;-0.76;100.00
48041;BME280;33815;48.386;11.738;2023-01-25T02:58:51;97993.44;;;-0.71;100.00
48041;BME280;33815;48.386;11.738;2023-01-25T03:01:17;97991.75;;;-0.72;100.00
48041;BME280;33815;48.386;11.738;2023-01-25T03:03:42;97986.63;;;-0.72;100.00
48041;BME280;33815;48.386;11.738;2023-01-25T03:06:07;97987.94;;;-0.87;100.00
48041;BME280;33815;48.386;11.738;2023-01-25T03:08:33;97989.53;;;-0.82;100.00
48041;BME280;33815;48.386;11.738;2023-01-25T03:11:01;97989.00;;;-0.94;100.00
48041;BME280;33815;48.386;11.738;2023-01-25T03:13:27;97980.94;;;-0.80;100.00
48041;BME280;33815;48.386;11.738;2023-01-25T03:15:58;97985.53;;;-0.93;100.00
48041;BME280;33815;48.386;11.738;2023-01-25T03:18:24;97988.19;;;-0.96;100.00
48041;BME280;33815;48.386;11.738;2023-01-25T03:20:49;97980.31;;;-0.88;100.00
48041;BME280;33815;48.386;11.738;2023-01-25T03:23:15;97985.06;;;-0.76;100.00
48041;BME280;33815;48.386;11.738;2023-01-25T03:25:40;97977.66;;;-0.85;100.00
48041;BME280;33815;48.386;11.738;2023-01-25T03:28:05;97971.38;;;-0.75;100.00
48041;BME280;33815;48.386;11.738;2023-01-25T03:30:30;97974.84;;;-0.77;100.00
48041;BME280;33815;48.386;11.738;2023-01-25T03:32:55;97979.66;;;-0.95;100.00
48041;BME280;33815;48.386;11.738;2023-01-25T03:35:21;97973.06;;;-1.04;100.00
48041;BME280;33815;48.386;11.738;2023-01-25T03:37:46;97977.50;;;-0.80;100.00
48041;BME280;33815;48.386;11.738;2023-01-25T03:40:11;97978.00;;;-0.97;100.00
48041;BME280;33815;48.386;11.738;2023-01-25T03:42:37;97983.25;;;-1.02;100.00
48041;BME280;33815;48.386;11.738;2023-01-25T03:45:02;97978.25;;;-1.05;100.00
48041;BME280;33815;48.386;11.738;2023-01-25T03:47:28;97983.31;;;-1.04;100.00
48041;BME280;33815;48.386;11.738;2023-01-25T03:49:53;97981.69;;;-1.06;100.00
48041;BME280;33815;48.386;11.738;2023-01-25T03:52:18;97981.72;;;-1.08;100.00
48041;BME280;33815;48.386;11.738;2023-01-25T03:54:43;97980.22;;;-1.15;100.00
48041;BME280;33815;48.386;11.738;2023-01-25T03:57:09;97975.69;;;-1.07;100.00
48041;BME280;33815;48.386;11.738;2023-01-25T03:59:34;97981.53;;;-1.01;100.00
48041;BME280;33815;48.386;11.738;2023-01-25T04:01:59;97961.91;;;-1.01;100.00
48041;BME280;33815;48.386;11.738;2023-01-25T04:04:24;97973.38;;;-0.84;100.00
48041;BME280;33815;48.386;11.738;2023-01-25T04:06:50;97967.69;;;-0.94;100.00
48041;BME280;33815;48.386;11.738;2023-01-25T04:09:15;97966.03;;;-0.97;100.00
48041;BME280;33815;48.386;11.738;2023-01-25T04:11:40;97962.78;;;-1.02;100.00
48041;BME280;33815;48.386;11.738;2023-01-25T04:14:06;97958.47;;;-1.00;100.00
48041;BME280;33815;48.386;11.738;2023-01-25T04:16:31;97942.19;;;-0.97;100.00
48041;BME280;33815;48.386;11.738;2023-01-25T04:18:56;97942.28;;;-1.00;100.00
48041;BME280;33815;48.386;11.738;2023-01-25T04:21:22;97953.34;;;-1.00;100.00
48041;BME280;33815;48.386;11.738;2023-01-25T04:23:47;97930.44;;;-1.05;100.00
48041;BME280;33815;48.386;11.738;2023-01-25T04:26:13;97940.88;;;-1.11;100.00
48041;BME280;33815;48.386;11.738;2023-01-25T04:28:39;97934.38;;;-1.23;100.00
48041;BME280;33815;48.386;11.738;2023-01-25T04:31:04;97934.84;;;-1.10;100.00
48041;BME280;33815;48.386;11.738;2023-01-25T04:33:30;97935.25;;;-0.94;100.00
48041;BME280;33815;48.386;11.738;2023-01-25T04:35:56;97941.44;;;-1.01;100.00
48041;BME280;33815;48.386;11.738;2023-01-25T04:38:21;97924.84;;;-1.17;100.00
48041;BME280;33815;48.386;11.738;2023-01-25T04:40:47;97917.44;;;-1.27;100.00
48041;BME280;33815;48.386;11.738;2023-01-25T04:43:14;97921.38;;;-1.15;100.00
48041;BME280;33815;48.386;11.738;2023-01-25T04:45:40;97937.31;;;-1.05;100.00
48041;BME280;33815;48.386;11.738;2023-01-25T04:48:07;97936.13;;;-0.95;100.00
48041;BME280;33815;48.386;11.738;2023-01-25T04:50:36;97930.50;;;-1.06;100.00
48041;BME280;33815;48.386;11.738;2023-01-25T04:53:02;97922.78;;;-1.05;100.00
48041;BME280;33815;48.386;11.738;2023-01-25T04:55:27;97928.72;;;-1.04;100.00
48041;BME280;33815;48.386;11.738;2023-01-25T04:57:53;97905.63;;;-1.01;100.00
48041;BME280;33815;48.386;11.738;2023-01-25T05:00:18;97925.28;;;-1.03;100.00
48041;BME280;33815;48.386;11.738;2023-01-25T05:02:44;97897.16;;;-1.33;100.00
48041;BME280;33815;48.386;11.738;2023-01-25T05:05:10;97914.56;;;-1.16;100.00
48041;BME280;33815;48.386;11.738;2023-01-25T05:07:35;97922.50;;;-0.95;100.00
48041;BME280;33815;48.386;11.738;2023-01-25T05:10:01;97920.13;;;-1.01;100.00
48041;BME280;33815;48.386;11.738;2023-01-25T05:12:26;97902.59;;;-1.15;100.00
48041;BME280;33815;48.386;11.738;2023-01-25T05:14:52;97913.75;;;-1.16;100.00
48041;BME280;33815;48.386;11.738;2023-01-25T05:17:17;97901.47;;;-1.05;100.00
48041;BME280;33815;48.386;11.738;2023-01-25T05:19:42;97920.25;;;-1.06;100.00
48041;BME280;33815;48.386;11.738;2023-01-25T05:22:13;97918.63;;;-1.09;100.00
48041;BME280;33815;48.386;11.738;2023-01-25T05:24:38;97907.81;;;-1.18;100.00
48041;BME280;33815;48.386;11.738;2023-01-25T05:27:08;97916.91;;;-1.08;100.00
48041;BME280;33815;48.386;11.738;2023-01-25T05:29:36;97899.38;;;-1.22;100.00
48041;BME280;33815;48.386;11.738;2023-01-25T05:32:06;97919.56;;;-1.11;100.00
48041;BME280;33815;48.386;11.738;2023-01-25T05:34:32;97910.59;;;-0.96;100.00
48041;BME280;33815;48.386;11.738;2023-01-25T05:36:57;97901.53;;;-1.08;100.00
48041;BME280;33815;48.386;11.738;2023-01-25T05:39:24;97904.50;;;-1.22;100.00
48041;BME280;33815;48.386;11.738;2023-01-25T05:41:49;97904.56;;;-1.24;100.00
48041;BME280;33815;48.386;11.738;2023-01-25T05:44:14;97909.50;;;-1.17;100.00
48041;BME280;33815;48.386;11.738;2023-01-25T05:46:40;97887.81;;;-1.34;100.00
48041;BME280;33815;48.386;11.738;2023-01-25T05:49:05;97907.09;;;-1.24;100.00
48041;BME280;33815;48.386;11.738;2023-01-25T05:51:31;97897.41;;;-1.12;100.00
48041;BME280;33815;48.386;11.738;2023-01-25T05:53:56;97887.59;;;-1.26;100.00
48041;BME280;33815;48.386;11.738;2023-01-25T05:56:22;97905.25;;;-1.18;100.00
48041;BME280;33815;48.386;11.738;2023-01-25T05:58:52;97889.09;;;-1.19;100.00
48041;BME280;33815;48.386;11.738;2023-01-25T06:01:18;97897.50;;;-1.15;100.00
48041;BME280;33815;48.386;11.738;2023-01-25T06:03:44;97890.78;;;-1.19;100.00
48041;BME280;33815;48.386;11.738;2023-01-25T06:06:09;97886.38;;;-1.14;100.00
48041;BME280;33815;48.386;11.738;2023-01-25T06:08:35;97901.84;;;-1.17;100.00
48041;BME280;33815;48.386;11.738;2023-01-25T06:11:06;97881.53;;;-1.24;100.00
48041;BME280;33815;48.386;11.738;2023-01-25T06:13:31;97899.38;;;-1.22;100.00
48041;BME280;33815;48.386;11.738;2023-01-25T06:15:56;97896.16;;;-1.27;100.00
48041;BME280;33815;48.386;11.738;2023-01-25T06:18:22;97888.47;;;-1.27;100.00
48041;BME280;33815;48.386;11.738;2023-01-25T06:20:49;97872.97;;;-1.23;100.00
48041;BME280;33815;48.386;11.738;2023-01-25T06:23:14;97878.91;;;-1.21;100.00
48041;BME280;33815;48.386;11.738;2023-01-25T06:25:39;97879.13;;;-1.28;100.00
48041;BME280;33815;48.386;11.738;2023-01-25T06:28:05;97879.81;;;-1.23;100.00
48041;BME280;33815;48.386;11.738;2023-01-25T06:30:30;97876.38;;;-1.22;100.00
48041;BME280;33815;48.386;11.738;2023-01-25T06:32:58;97876.25;;;-1.17;100.00
48041;BME280;33815;48.386;11.738;2023-01-25T06:35:24;97872.00;;;-1.18;100.00
48041;BME280;33815;48.386;11.738;2023-01-25T06:37:49;97874.72;;;-1.23;100.00
48041;BME280;33815;48.386;11.738;2023-01-25T06:40:15;97857.91;;;-1.32;100.00
48041;BME280;33815;48.386;11.738;2023-01-25T06:42:41;97843.53;;;-1.36;100.00
48041;BME280;33815;48.386;11.738;2023-01-25T06:45:07;97859.53;;;-1.29;100.00
48041;BME280;33815;48.386;11.738;2023-01-25T06:47:33;97854.06;;;-1.17;100.00
48041;BME280;33815;48.386;11.738;2023-01-25T06:49:59;97868.22;;;-1.07;100.00
48041;BME280;33815;48.386;11.738;2023-01-25T06:52:24;97861.00;;;-1.21;100.00
48041;BME280;33815;48.386;11.738;2023-01-25T06:54:49;97863.78;;;-1.00;100.00
48041;BME280;33815;48.386;11.738;2023-01-25T06:57:14;97867.81;;;-1.21;100.00
48041;BME280;33815;48.386;11.738;2023-01-25T06:59:39;97851.81;;;-1.28;100.00
48041;BME280;33815;48.386;11.738;2023-01-25T07:02:05;97866.13;;;-1.21;100.00
48041;BME280;33815;48.386;11.738;2023-01-25T07:04:30;97857.59;;;-1.21;100.00
48041;BME280;33815;48.386;11.738;2023-01-25T07:06:55;97842.88;;;-1.14;100.00
48041;BME280;33815;48.386;11.738;2023-01-25T07:09:21;97858.19;;;-1.13;100.00
48041;BME280;33815;48.386;11.738;2023-01-25T07:11:51;97850.97;;;-1.00;100.00
48041;BME280;33815;48.386;11.738;2023-01-25T07:14:16;97848.75;;;-1.11;100.00
48041;BME280;33815;48.386;11.738;2023-01-25T07:16:41;97852.56;;;-0.96;100.00
48041;BME280;33815;48.386;11.738;2023-01-25T07:19:10;97847.81;;;-1.08;100.00
48041;BME280;33815;48.386;11.738;2023-01-25T07:21:35;97850.97;;;-1.00;100.00
48041;BME280;33815;48.386;11.738;2023-01-25T07:24:02;97857.31;;;-1.12;100.00
48041;BME280;33815;48.386;11.738;2023-01-25T07:26:29;97858.94;;;-1.09;100.00
48041;BME280;33815;48.386;11.738;2023-01-25T07:28:55;97847.81;;;-1.08;100.00
48041;BME280;33815;48.386;11.738;2023-01-25T07:31:21;97853.72;;;-1.06;100.00
48041;BME280;33815;48.386;11.738;2023-01-25T07:33:51;97842.47;;;-1.29;100.00
48041;BME280;33815;48.386;11.738;2023-01-25T07:36:17;97829.06;;;-1.09;100.00
48041;BME280;33815;48.386;11.738;2023-01-25T07:38:43;97838.03;;;-1.24;100.00
48041;BME280;33815;48.386;11.738;2023-01-25T07:41:08;97859.88;;;-1.12;100.00
48041;BME280;33815;48.386;11.738;2023-01-25T07:43:33;97843.97;;;-1.22;100.00
48041;BME280;33815;48.386;11.738;2023-01-25T07:46:07;97858.84;;;-1.06;100.00
48041;BME280;33815;48.386;11.738;2023-01-25T07:48:35;97865.31;;;-0.94;100.00
48041;BME280;33815;48.386;11.738;2023-01-25T07:51:02;97866.28;;;-0.98;100.00
48041;BME280;33815;48.386;11.738;2023-01-25T07:53:37;97863.13;;;-1.07;100.00
48041;BME280;33815;48.386;11.738;2023-01-25T07:56:03;97858.03;;;-1.08;100.00
48041;BME280;33815;48.386;11.738;2023-01-25T07:58:28;97856.03;;;-1.27;100.00
48041;BME280;33815;48.386;11.738;2023-01-25T08:00:53;97839.91;;;-1.29;100.00
48041;BME280;33815;48.386;11.738;2023-01-25T08:03:19;97852.72;;;-1.29;100.00
48041;BME280;33815;48.386;11.738;2023-01-25T08:05:46;97850.56;;;-1.14;100.00
48041;BME280;33815;48.386;11.738;2023-01-25T08:08:11;97854.38;;;-0.99;100.00
48041;BME280;33815;48.386;11.738;2023-01-25T08:10:37;97852.56;;;-0.96;100.00
48041;BME280;33815;48.386;11.738;2023-01-25T08:13:03;97862.91;;;-0.99;100.00
48041;BME280;33815;48.386;11.738;2023-01-25T08:15:28;97861.72;;;-0.89;100.00
48041;BME280;33815;48.386;11.738;2023-01-25T08:17:53;97859.41;;;-0.96;100.00
48041;BME280;33815;48.386;11.738;2023-01-25T08:20:18;97836.19;;;-1.18;100.00
48041;BME280;33815;48.386;11.738;2023-01-25T08:22:46;97858.44;;;-1.21;100.00
48041;BME280;33815;48.386;11.738;2023-01-25T08:25:11;97853.22;;;-1.17;100.00
48041;BME280;33815;48.386;11.738;2023-01-25T08:27:36;97851.91;;;-1.02;100.00
48041;BME280;33815;48.386;11.738;2023-01-25T08:30:02;97834.91;;;-1.04;100.00
48041;BME280;33815;48.386;11.738;2023-01-25T08:32:27;97839.75;;;-0.96;100.00
48041;BME280;33815;48.386;11.738;2023-01-25T08:34:52;97834.84;;;-1.02;100.00
48041;BME280;33815;48.386;11.738;2023-01-25T08:37:17;97839.22;;;-1.06;100.00
48041;BME280;33815;48.386;11.738;2023-01-25T08:39:43;97852.06;;;-1.07;100.00
48041;BME280;33815;48.386;11.738;2023-01-25T08:42:08;97821.53;;;-1.13;100.00
48041;BME280;33815;48.386;11.738;2023-01-25T08:44:33;97836.84;;;-1.12;100.00
48041;BME280;33815;48.386;11.738;2023-01-25T08:46:58;97841.88;;;-1.09;100.00
48041;BME280;33815;48.386;11.738;2023-01-25T08:49:24;97833.56;;;-0.89;100.00
48041;BME280;33815;48.386;11.738;2023-01-25T08:51:51;97822.69;;;-0.95;100.00
48041;BME280;33815;48.386;11.738;2023-01-25T08:54:16;97840.16;;;-0.81;100.00
48041;BME280;33815;48.386;11.738;2023-01-25T08:56:42;97832.84;;;-0.92;100.00
48041;BME280;33815;48.386;11.738;2023-01-25T08:59:10;97830.03;;;-0.84;100.00
48041;BME280;33815;48.386;11.738;2023-01-25T09:01:36;97830.41;;;-0.97;100.00
48041;BME280;33815;48.386;11.738;2023-01-25T09:04:02;97823.53;;;-0.95;100.00
48041;BME280;33815;48.386;11.738;2023-01-25T09:06:27;97824.66;;;-1.04;100.00
48041;BME280;33815;48.386;11.738;2023-01-25T09:08:52;97817.47;;;-0.92;100.00
48041;BME280;33815;48.386;11.738;2023-01-25T09:11:20;97824.06;;;-0.85;100.00
48041;BME280;33815;48.386;11.738;2023-01-25T09:13:46;97819.78;;;-0.84;100.00
48041;BME280;33815;48.386;11.738;2023-01-25T09:16:18;97814.28;;;-0.72;100.00
48041;BME280;33815;48.386;11.738;2023-01-25T09:18:44;97819.00;;;-0.87;100.00
48041;BME280;33815;48.386;11.738;2023-01-25T09:21:16;97794.78;;;-1.03;100.00
48041;BME280;33815;48.386;11.738;2023-01-25T09:23:42;97795.16;;;-0.89;100.00
48041;BME280;33815;48.386;11.738;2023-01-25T09:26:12;97814.88;;;-0.91;100.00
48041;BME280;33815;48.386;11.738;2023-01-25T09:28:39;97811.91;;;-0.78;100.00
48041;BME280;33815;48.386;11.738;2023-01-25T09:31:05;97815.97;;;-0.71;100.00
48041;BME280;33815;48.386;11.738;2023-01-25T09:33:34;97822.19;;;-0.53;100.00
48041;BME280;33815;48.386;11.738;2023-01-25T09:36:00;97818.47;;;-0.70;100.00
48041;BME280;33815;48.386;11.738;2023-01-25T09:38:25;97806.22;;;-0.87;100.00
48041;BME280;33815;48.386;11.738;2023-01-25T09:41:08;97810.84;;;-0.71;100.00
48041;BME280;33815;48.386;11.738;2023-01-25T09:43:57;97823.81;;;-0.77;100.00
48041;BME280;33815;48.386;11.738;2023-01-25T09:46:51;97814.22;;;-0.71;100.00
48041;BME280;33815;48.386;11.738;2023-01-25T09:49:57;97814.28;;;-0.72;100.00
48041;BME280;33815;48.386;11.738;2023-01-25T09:55:13;97812.47;;;-0.68;100.00
48041;BME280;33815;48.386;11.738;2023-01-25T09:57:40;97812.03;;;-0.83;100.00
48041;BME280;33815;48.386;11.738;2023-01-25T10:00:16;97790.00;;;-0.87;100.00
48041;BME280;33815;48.386;11.738;2023-01-25T10:02:51;97798.28;;;-0.54;100.00
48041;BME280;33815;48.386;11.738;2023-01-25T10:05:24;97809.38;;;-0.78;100.00
48041;BME280;33815;48.386;11.738;2023-01-25T10:08:13;97789.88;;;-0.82;100.00
48041;BME280;33815;48.386;11.738;2023-01-25T10:10:43;97794.53;;;-0.68;100.00
48041;BME280;33815;48.386;11.738;2023-01-25T10:13:14;97791.97;;;-0.68;100.00
48041;BME280;33815;48.386;11.738;2023-01-25T10:15:49;97787.88;;;-0.47;100.00
48041;BME280;33815;48.386;11.738;2023-01-25T10:18:26;97793.88;;;-0.48;100.00
48041;BME280;33815;48.386;11.738;2023-01-25T10:20:57;97783.91;;;-0.58;100.00
48041;BME280;33815;48.386;11.738;2023-01-25T10:26:37;97776.94;;;-0.53;100.00
48041;BME280;33815;48.386;11.738;2023-01-25T10:29:20;97781.06;;;-0.48;100.00
48041;BME280;33815;48.386;11.738;2023-01-25T10:31:49;97772.78;;;-0.57;100.00
48041;BME280;33815;48.386;11.738;2023-01-25T10:36:56;97763.59;;;-0.62;100.00
48041;BME280;33815;48.386;11.738;2023-01-25T10:39:22;97761.72;;;-0.57;100.00
48041;BME280;33815;48.386;11.738;2023-01-25T10:41:57;97753.75;;;-0.49;100.00
48041;BME280;33815;48.386;11.738;2023-01-25T10:44:24;97767.84;;;-0.61;100.00
48041;BME280;33815;48.386;11.738;2023-01-25T10:52:12;97740.72;;;-0.67;100.00
48041;BME280;33815;48.386;11.738;2023-01-25T10:54:37;97740.50;;;-0.61;100.00
48041;BME280;33815;48.386;11.738;2023-01-25T10:57:05;97730.19;;;-0.34;100.00
48041;BME280;33815;48.386;11.738;2023-01-25T10:59:32;97719.72;;;-0.52;100.00
48041;BME280;33815;48.386;11.738;2023-01-25T11:02:24;97732.19;;;-0.42;100.00
48041;BME280;33815;48.386;11.738;2023-01-25T11:05:35;97733.63;;;-0.59;100.00
48041;BME280;33815;48.386;11.738;2023-01-25T11:08:20;97726.28;;;-0.44;100.00
48041;BME280;33815;48.386;11.738;2023-01-25T11:10:46;97716.59;;;-0.36;100.00
48041;BME280;33815;48.386;11.738;2023-01-25T11:15:37;97711.50;;;-0.61;100.00
48041;BME280;33815;48.386;11.738;2023-01-25T11:18:05;97701.84;;;-0.53;100.00
48041;BME280;33815;48.386;11.738;2023-01-25T11:20:31;97703.53;;;-0.54;100.00
48041;BME280;33815;48.386;11.738;2023-01-25T11:22:56;97703.88;;;-0.63;100.00
48041;BME280;33815;48.386;11.738;2023-01-25T11:25:25;97698.47;;;-0.55;100.00
48041;BME280;33815;48.386;11.738;2023-01-25T11:27:50;97689.50;;;-0.67;100.00
48041;BME280;33815;48.386;11.738;2023-01-25T11:30:17;97682.75;;;-0.44;100.00
48041;BME280;33815;48.386;11.738;2023-01-25T11:32:43;97667.31;;;-0.43;100.00
48041;BME280;33815;48.386;11.738;2023-01-25T11:38:11;97658.00;;;-0.69;100.00
48041;BME280;33815;48.386;11.738;2023-01-25T11:40:39;97654.44;;;-0.65;100.00
48041;BME280;33815;48.386;11.738;2023-01-25T11:46:00;97662.81;;;-0.60;100.00
48041;BME280;33815;48.386;11.738;2023-01-25T11:48:44;97660.75;;;-0.50;100.00
48041;BME280;33815;48.386;11.738;2023-01-25T11:54:30;97642.19;;;-0.57;100.00
48041;BME280;33815;48.386;11.738;2023-01-25T11:57:08;97628.00;;;-0.42;100.00
48041;BME280;33815;48.386;11.738;2023-01-25T12:02:40;97627.84;;;-0.37;100.00
48041;BME280;33815;48.386;11.738;2023-01-25T12:08:10;97615.53;;;-0.51;100.00
48041;BME280;33815;48.386;11.738;2023-01-25T12:18:58;97594.50;;;-0.59;100.00
48041;BME280;33815;48.386;11.738;2023-01-25T12:24:52;97587.47;;;-0.54;100.00
48041;BME280;33815;48.386;11.738;2023-01-25T12:30:47;97583.66;;;-0.66;100.00
48041;BME280;33815;48.386;11.738;2023-01-25T12:35:50;97563.81;;;-0.61;100.00
48041;BME280;33815;48.386;11.738;2023-01-25T12:38:24;97582.88;;;-0.68;100.00
48041;BME280;33815;48.386;11.738;2023-01-25T12:41:01;97572.19;;;-0.79;100.00
48041;BME280;33815;48.386;11.738;2023-01-25T12:43:44;97554.81;;;-0.71;100.00
48041;BME280;33815;48.386;11.738;2023-01-25T12:46:23;97559.50;;;-0.82;100.00
48041;BME280;33815;48.386;11.738;2023-01-25T12:48:51;97572.91;;;-0.76;100.00
48041;BME280;33815;48.386;11.738;2023-01-25T12:51:20;97562.88;;;-0.82;100.00
48041;BME280;33815;48.386;11.738;2023-01-25T12:53:48;97555.50;;;-0.66;100.00
48041;BME280;33815;48.386;11.738;2023-01-25T12:56:38;97549.88;;;-0.76;100.00
48041;BME280;33815;48.386;11.738;2023-01-25T13:02:09;97543.22;;;-0.81;100.00
48041;BME280;33815;48.386;11.738;2023-01-25T13:07:26;97544.53;;;-0.70;100.00
48041;BME280;33815;48.386;11.738;2023-01-25T13:10:12;97532.78;;;-0.75;100.00
48041;BME280;33815;48.386;11.738;2023-01-25T13:12:56;97537.06;;;-0.76;100.00
48041;BME280;33815;48.386;11.738;2023-01-25T13:15:43;97525.44;;;-0.84;100.00
48041;BME280;33815;48.386;11.738;2023-01-25T13:20:54;97518.09;;;-0.70;100.00
48041;BME280;33815;48.386;11.738;2023-01-25T13:28:53;97520.75;;;-0.73;100.00
48041;BME280;33815;48.386;11.738;2023-01-25T13:34:05;97506.81;;;-0.88;100.00
48041;BME280;33815;48.386;11.738;2023-01-25T13:42:02;97507.50;;;-0.84;100.00
48041;BME280;33815;48.386;11.738;2023-01-25T13:44:29;97509.19;;;-0.83;100.00
48041;BME280;33815;48.386;11.738;2023-01-25T13:47:01;97507.25;;;-0.77;100.00
48041;BME280;33815;48.386;11.738;2023-01-25T13:49:33;97506.94;;;-0.91;100.00
48041;BME280;33815;48.386;11.738;2023-01-25T13:52:02;97498.34;;;-0.90;100.00
48041;BME280;33815;48.386;11.738;2023-01-25T13:54:29;97501.06;;;-0.95;100.00
48041;BME280;33815;48.386;11.738;2023-01-25T13:57:05;97500.13;;;-0.92;100.00
48041;BME280;33815;48.386;11.738;2023-01-25T13:59:30;97498.84;;;-1.04;100.00